Time;durP1;ratioP1;P1;durP2;ratioP2;P2;SDS_P1;SDS_P2;PMS_P1;PMS_P2;Temp;Humidity;BMP_temperature;BMP_pressure;BME280_temperature;BME280_humidity;BME280_pressure;Samples;Min_cycle;Max_cycle;Signal;HPM_P1;HPM_P2
2022/08/14 00:02:02;;;;;;;4.18;1.98;;;;;;;17.11;60.93;98349.25;5093887;28;20162;-72
2022/08/14 00:04:28;;;;;;;5.03;2.78;;;;;;;17.02;61.77;98351.63;5092231;28;20024;-72
2022/08/14 00:06:53;;;;;;;5.47;2.40;;;;;;;16.82;62.17;98333.09;5092971;28;20019;-72
2022/08/14 00:09:19;;;;;;;10.07;2.70;;;;;;;16.76;62.00;98343.09;5089074;28;21833;-72
2022/08/14 00:11:44;;;;;;;3.00;2.30;;;;;;;16.58;62.81;98341.53;5062151;28;20035;-71
2022/08/14 00:14:10;;;;;;;12.35;2.50;;;;;;;16.57;63.39;98341.78;5091846;28;20393;-72
2022/08/14 00:16:36;;;;;;;7.40;2.78;;;;;;;16.60;64.04;98339.38;5093228;28;20036;-72
2022/08/14 00:19:02;;;;;;;9.73;3.05;;;;;;;16.31;63.51;98308.69;5092279;28;20032;-72
2022/08/14 00:21:28;;;;;;;8.15;2.88;;;;;;;16.41;63.91;98340.75;5090338;28;20061;-72
2022/08/14 00:23:55;;;;;;;6.65;2.60;;;;;;;16.26;63.90;98316.81;5093396;28;20032;-72
2022/08/14 00:26:21;;;;;;;6.43;2.88;;;;;;;16.25;64.31;98323.34;5089825;28;20026;-71
2022/08/14 00:28:46;;;;;;;5.13;2.65;;;;;;;16.27;64.44;98323.06;5091761;28;20030;-72
2022/08/14 00:31:13;;;;;;;5.68;2.50;;;;;;;16.24;64.72;98316.22;5091927;28;20169;-72
2022/08/14 00:33:38;;;;;;;5.15;2.50;;;;;;;16.17;65.33;98310.13;5070957;28;20020;-72
2022/08/14 00:36:03;;;;;;;3.05;2.50;;;;;;;16.19;66.48;98297.03;5094057;28;20466;-72
2022/08/14 00:38:29;;;;;;;9.15;2.65;;;;;;;16.08;65.70;98278.88;5093529;28;20031;-72
2022/08/14 00:40:55;;;;;;;4.30;2.60;;;;;;;16.18;65.22;98303.59;5072937;28;20484;-72
2022/08/14 00:43:20;;;;;;;5.72;2.30;;;;;;;16.05;66.52;98282.13;5074700;28;20024;-71
2022/08/14 00:45:46;;;;;;;6.00;2.40;;;;;;;16.16;67.18;98297.56;5074854;28;20477;-72
2022/08/14 00:48:12;;;;;;;7.07;2.10;;;;;;;16.17;66.09;98269.19;5090868;28;20059;-71
2022/08/14 00:50:37;;;;;;;7.28;2.20;;;;;;;16.26;66.17;98291.41;5089934;28;20016;-72
2022/08/14 00:53:05;;;;;;;6.30;2.30;;;;;;;16.23;65.39;98281.00;5089556;28;20067;-72
2022/08/14 00:55:33;;;;;;;2.15;1.90;;;;;;;16.07;65.35;98263.59;5091106;28;20431;-72
2022/08/14 01:00:43;;;;;;;4.05;2.03;;;;;;;16.03;65.95;98284.28;5090412;28;20081;-72
2022/08/14 01:03:08;;;;;;;2.45;1.75;;;;;;;15.91;65.97;98277.03;5091216;28;20020;-72
2022/08/14 01:05:34;;;;;;;5.53;2.10;;;;;;;15.74;67.55;98270.75;5087802;28;20024;-71
2022/08/14 01:08:00;;;;;;;3.47;2.25;;;;;;;15.79;67.88;98281.75;5071724;28;20081;-72
2022/08/14 01:13:15;;;;;;;2.33;2.13;;;;;;;15.76;68.68;98284.97;5088862;28;20035;-72
2022/08/14 01:15:42;;;;;;;5.93;2.15;;;;;;;15.65;69.12;98272.25;5090610;28;20472;-72
2022/08/14 01:21:02;;;;;;;2.17;1.98;;;;;;;15.42;68.66;98265.88;5085370;28;20066;-72
2022/08/14 01:23:32;;;;;;;2.63;1.90;;;;;;;15.46;69.29;98279.84;5088903;28;20016;-73
2022/08/14 01:25:58;;;;;;;3.30;2.00;;;;;;;15.47;69.97;98276.88;5077863;28;20024;-72
2022/08/14 01:28:27;;;;;;;2.65;2.10;;;;;;;15.43;69.87;98278.44;5092125;28;20103;-72
2022/08/14 01:30:56;;;;;;;3.88;2.00;;;;;;;15.46;70.01;98286.13;5089795;28;20028;-72
2022/08/14 01:33:28;;;;;;;;;;;;;;;15.40;70.11;98286.28;5088766;28;20039;-72
2022/08/14 01:35:59;;;;;;;3.35;2.15;;;;;;;15.48;71.15;98284.00;5092170;28;20266;-72
2022/08/14 01:38:25;;;;;;;3.33;2.13;;;;;;;15.63;70.12;98291.56;5087636;28;20023;-72
2022/08/14 01:40:52;;;;;;;4.85;2.60;;;;;;;15.60;70.57;98272.16;5074254;28;20097;-72
2022/08/14 01:43:17;;;;;;;4.57;2.38;;;;;;;15.52;71.29;98268.78;5089801;28;20525;-72
2022/08/14 01:45:43;;;;;;;4.68;2.47;;;;;;;15.66;70.95;98282.06;5092196;28;20114;-72
2022/08/14 01:48:09;;;;;;;5.15;2.60;;;;;;;15.63;71.02;98268.94;5090098;28;20038;-71
2022/08/14 01:50:35;;;;;;;6.63;2.38;;;;;;;15.51;71.80;98272.59;5086547;28;20028;-72
2022/08/14 01:53:01;;;;;;;3.33;2.42;;;;;;;15.58;71.08;98269.66;5074292;28;20077;-73
2022/08/14 01:55:30;;;;;;;6.03;2.65;;;;;;;15.60;70.81;98269.44;5092589;28;20642;-71
2022/08/14 01:57:56;;;;;;;5.47;3.17;;;;;;;15.51;71.53;98253.50;5092110;28;20024;-72
2022/08/14 02:00:22;;;;;;;2.67;2.25;;;;;;;15.39;72.92;98258.19;5091381;28;20035;-72
2022/08/14 02:02:48;;;;;;;8.10;2.90;;;;;;;15.26;73.61;98253.91;5064058;28;20031;-72
2022/08/14 02:05:14;;;;;;;4.63;2.20;;;;;;;15.29;74.09;98247.13;5071013;28;20020;-71
2022/08/14 02:07:42;;;;;;;3.72;2.22;;;;;;;15.24;74.24;98238.88;5090841;28;20097;-71
2022/08/14 02:10:09;;;;;;;3.75;2.42;;;;;;;15.19;74.98;98231.44;5088553;28;20031;-72
2022/08/14 02:12:34;;;;;;;2.90;2.33;;;;;;;15.33;73.75;98229.22;5073645;28;20027;-72
2022/08/14 02:15:00;;;;;;;3.00;2.20;;;;;;;15.35;73.52;98216.16;5071939;28;20363;-72
2022/08/14 02:17:27;;;;;;;4.40;2.58;;;;;;;15.37;74.06;98227.63;5070159;28;20618;-72
2022/08/14 02:19:52;;;;;;;4.05;2.53;;;;;;;15.30;73.56;98218.78;5088827;28;20032;-72
2022/08/14 02:22:18;;;;;;;2.65;2.28;;;;;;;15.23;74.83;98232.59;5089992;28;20030;-71
2022/08/14 02:24:44;;;;;;;2.70;2.40;;;;;;;15.08;76.49;98235.88;5091916;28;20023;-72
2022/08/14 02:27:10;;;;;;;2.40;2.17;;;;;;;14.98;77.60;98237.59;5091219;28;20489;-72
2022/08/14 02:29:36;;;;;;;5.78;2.50;;;;;;;14.97;78.42;98242.25;5090531;28;20069;-72
2022/08/14 02:32:01;;;;;;;6.72;3.10;;;;;;;14.95;78.54;98241.66;5085797;28;20020;-72
2022/08/14 02:34:31;;;;;;;7.95;2.95;;;;;;;14.84;77.29;98245.28;5087863;28;20024;-72
2022/08/14 02:37:01;;;;;;;5.65;3.40;;;;;;;14.61;77.58;98240.75;5090325;28;20491;-72
2022/08/14 02:39:28;;;;;;;10.57;3.22;;;;;;;14.49;81.61;98243.50;5089831;28;20107;-72
2022/08/14 02:41:53;;;;;;;6.65;3.00;;;;;;;14.30;82.55;98231.94;5087235;28;20421;-72
2022/08/14 02:44:22;;;;;;;5.72;2.95;;;;;;;14.30;83.73;98233.84;5088960;28;20028;-72
2022/08/14 02:46:50;;;;;;;4.78;2.72;;;;;;;14.09;85.64;98222.53;5087072;28;20586;-72
2022/08/14 02:49:16;;;;;;;7.63;3.15;;;;;;;14.06;86.49;98220.31;5069604;28;20057;-72
2022/08/14 02:51:46;;;;;;;5.85;2.97;;;;;;;14.16;86.17;98219.69;5087206;28;20085;-72
2022/08/14 02:54:11;;;;;;;4.00;2.67;;;;;;;14.17;84.98;98208.59;5063419;28;20024;-72
2022/08/14 02:56:37;;;;;;;6.30;3.08;;;;;;;14.13;85.18;98187.53;5090360;28;20073;-72
2022/08/14 02:59:05;;;;;;;4.78;2.95;;;;;;;14.19;85.37;98192.00;5086488;28;20020;-71
2022/08/14 03:01:31;;;;;;;3.42;2.70;;;;;;;14.32;83.11;98177.28;5066310;28;20028;-72
2022/08/14 03:03:56;;;;;;;6.07;3.13;;;;;;;14.38;83.80;98200.81;5085694;28;20085;-72
2022/08/14 03:06:24;;;;;;;5.18;2.85;;;;;;;14.50;83.24;98193.44;5088308;28;20063;-71
2022/08/14 03:08:51;;;;;;;5.57;2.83;;;;;;;14.11;84.58;98168.72;5086240;28;20054;-72
2022/08/14 03:11:17;;;;;;;5.35;3.03;;;;;;;14.13;86.34;98193.00;5091980;28;20028;-72
2022/08/14 03:13:46;;;;;;;2.67;2.45;;;;;;;14.05;87.65;98194.19;5072642;28;20062;-72
2022/08/14 03:16:13;;;;;;;8.30;3.08;;;;;;;14.09;88.42;98195.34;5084441;28;20024;-72
2022/08/14 03:18:44;;;;;;;8.23;2.83;;;;;;;14.07;88.43;98183.91;5086476;28;20028;-72
2022/08/14 03:21:15;;;;;;;4.45;3.05;;;;;;;14.06;87.35;98178.69;5070969;28;20111;-72
2022/08/14 03:23:42;;;;;;;4.10;2.80;;;;;;;14.02;88.85;98183.78;5088839;28;20074;-72
2022/08/14 03:26:09;;;;;;;5.15;2.75;;;;;;;13.92;89.73;98172.69;5087170;28;20020;-72
2022/08/14 03:28:37;;;;;;;3.33;2.83;;;;;;;13.81;89.32;98169.78;5086368;28;20032;-72
2022/08/14 03:31:03;;;;;;;3.60;2.50;;;;;;;13.81;90.77;98180.66;5090793;28;20027;-72
2022/08/14 03:33:28;;;;;;;3.97;2.75;;;;;;;13.91;89.89;98188.19;5091193;28;20024;-72
2022/08/14 03:35:53;;;;;;;4.00;2.97;;;;;;;13.76;91.08;98177.81;5091535;28;20560;-73
2022/08/14 03:38:19;;;;;;;4.07;2.55;;;;;;;13.69;91.53;98163.53;5090831;28;20035;-72
2022/08/14 03:40:45;;;;;;;5.40;2.70;;;;;;;13.67;91.40;98160.22;5093194;28;20063;-73
2022/08/14 03:43:12;;;;;;;6.53;3.63;;;;;;;13.61;89.58;98155.72;5092036;28;20032;-72
2022/08/14 03:45:39;;;;;;;4.90;2.90;;;;;;;13.71;90.49;98166.00;5094201;28;20024;-72
2022/08/14 03:48:18;;;;;;;4.88;2.95;;;;;;;13.56;90.83;98175.47;5076113;28;20028;-72
2022/08/14 03:50:48;;;;;;;4.90;3.08;;;;;;;13.44;95.07;98165.66;5075622;28;20059;-71
2022/08/14 03:53:14;;;;;;;7.15;3.05;;;;;;;13.23;97.12;98153.47;5075947;28;20024;-72
2022/08/14 03:55:40;;;;;;;4.10;2.83;;;;;;;13.28;97.88;98169.94;5093076;28;20032;-72
2022/08/14 03:58:06;;;;;;;3.00;2.65;;;;;;;13.12;100.00;98158.69;5094689;28;20024;-73
2022/08/14 04:00:32;;;;;;;3.83;3.13;;;;;;;13.19;100.00;98168.63;5089557;28;20519;-72
2022/08/14 04:02:58;;;;;;;4.20;3.05;;;;;;;12.99;100.00;98147.22;5092651;28;20131;-73
2022/08/14 04:05:23;;;;;;;3.70;3.17;;;;;;;12.95;100.00;98144.16;5079677;28;20441;-73
2022/08/14 04:07:49;;;;;;;4.68;3.20;;;;;;;13.10;100.00;98162.72;5094062;28;20024;-73
2022/08/14 04:10:14;;;;;;;6.85;3.00;;;;;;;13.08;99.94;98162.94;5090771;28;20039;-73
2022/08/14 04:12:40;;;;;;;4.32;2.80;;;;;;;13.08;99.98;98157.50;5092923;28;20111;-73
2022/08/14 04:15:06;;;;;;;5.03;3.15;;;;;;;13.11;100.00;98146.16;5092974;28;20028;-72
2022/08/14 04:17:32;;;;;;;5.05;3.30;;;;;;;13.34;98.79;98152.69;5092653;28;20064;-73
2022/08/14 04:20:04;;;;;;;8.10;3.28;;;;;;;13.33;98.04;98138.28;5092902;28;20084;-73
2022/08/14 04:22:30;;;;;;;4.03;2.90;;;;;;;13.52;97.08;98160.72;5088427;28;20427;-71
2022/08/14 04:24:57;;;;;;;5.53;3.30;;;;;;;13.58;96.05;98164.38;5089205;28;20027;-71
2022/08/14 04:27:22;;;;;;;5.45;3.38;;;;;;;13.61;93.58;98155.72;5091509;28;20513;-73
2022/08/14 04:29:48;;;;;;;11.55;3.60;;;;;;;13.71;93.58;98158.69;5070980;28;20039;-73
2022/08/14 04:32:14;;;;;;;5.72;4.10;;;;;;;13.71;93.89;98155.97;5075856;28;20020;-70
2022/08/14 04:34:40;;;;;;;8.40;3.40;;;;;;;13.76;93.35;98150.63;5091034;28;20070;-70
2022/08/14 04:45:25;;;;;;;4.28;3.17;;;;;;;14.07;89.81;98159.41;5091981;28;20065;-69
2022/08/14 04:50:36;;;;;;;4.30;3.03;;;;;;;14.35;86.32;98157.75;5091858;28;20070;-70
2022/08/14 04:53:02;;;;;;;9.30;3.00;;;;;;;14.39;84.16;98153.50;5088228;28;20036;-69
2022/08/14 04:55:28;;;;;;;4.72;3.10;;;;;;;14.48;84.83;98157.47;5088690;28;20035;-69
2022/08/14 04:57:54;;;;;;;4.50;2.90;;;;;;;14.64;83.73;98150.41;5091803;28;20030;-70
2022/08/14 05:00:20;;;;;;;4.20;3.13;;;;;;;14.76;81.58;98151.19;5089344;28;20702;-71
2022/08/14 05:02:46;;;;;;;6.93;3.50;;;;;;;14.91;81.31;98147.91;5082012;28;20667;-67
2022/08/14 05:05:11;;;;;;;7.47;3.17;;;;;;;15.11;81.24;98150.09;5088209;28;20023;-67
2022/08/14 05:07:37;;;;;;;6.78;3.70;;;;;;;15.19;78.19;98146.97;5089975;28;20024;-68
2022/08/14 05:10:03;;;;;;;13.40;4.53;;;;;;;15.28;76.26;98142.75;5085058;28;20028;-65
2022/08/14 05:12:28;;;;;;;6.82;3.92;;;;;;;15.28;75.75;98148.19;5081776;28;20053;-66
2022/08/14 05:14:54;;;;;;;7.75;4.30;;;;;;;15.22;77.27;98159.25;5087872;28;20024;-67
2022/08/14 05:17:20;;;;;;;5.57;3.67;;;;;;;15.24;77.19;98157.94;5090246;28;20418;-67
2022/08/14 05:19:45;;;;;;;6.15;3.70;;;;;;;15.16;78.60;98160.25;5088567;28;20020;-70
2022/08/14 05:22:11;;;;;;;4.90;3.10;;;;;;;15.35;76.88;98158.91;5090491;28;20024;-69
2022/08/14 05:24:36;;;;;;;5.47;3.08;;;;;;;15.51;75.50;98147.16;5091069;28;20023;-67
2022/08/14 05:27:02;;;;;;;9.38;3.72;;;;;;;15.72;73.77;98148.31;5090940;28;20032;-66
2022/08/14 05:29:27;;;;;;;5.13;3.58;;;;;;;16.07;72.65;98154.44;5093630;28;20338;-64
2022/08/14 05:31:55;;;;;;;4.85;3.25;;;;;;;16.25;71.76;98156.03;5089751;28;20489;-65
2022/08/14 05:34:21;;;;;;;4.63;3.22;;;;;;;16.44;70.50;98158.13;5090130;28;20107;-65
2022/08/14 05:36:46;;;;;;;7.60;3.67;;;;;;;16.56;69.74;98152.53;5088503;28;20112;-67
2022/08/14 05:39:11;;;;;;;3.85;3.15;;;;;;;16.81;68.58;98148.41;5088872;28;20035;-67
2022/08/14 05:41:37;;;;;;;4.60;3.10;;;;;;;16.86;68.07;98143.81;5090419;28;20047;-67
2022/08/14 05:44:02;;;;;;;5.25;3.17;;;;;;;17.23;65.49;98151.19;5092960;28;20406;-68
2022/08/14 05:46:28;;;;;;;4.25;3.28;;;;;;;17.40;64.49;98156.53;5088500;28;20066;-67
2022/08/14 05:48:55;;;;;;;7.20;3.20;;;;;;;17.51;63.63;98155.50;5087242;28;20028;-68
2022/08/14 05:51:22;;;;;;;3.55;3.03;;;;;;;17.70;63.06;98157.78;5087067;28;20024;-64
2022/08/14 05:53:49;;;;;;;4.22;3.40;;;;;;;17.66;62.93;98153.94;5085263;28;20445;-64
2022/08/14 05:56:14;;;;;;;3.90;3.22;;;;;;;17.82;62.02;98150.22;5089870;28;20020;-64
2022/08/14 05:58:39;;;;;;;7.78;3.00;;;;;;;18.21;60.38;98154.47;5086940;28;20020;-64
2022/08/14 06:01:05;;;;;;;3.65;3.00;;;;;;;18.20;59.91;98158.31;5087144;28;20028;-63
2022/08/14 06:03:30;;;;;;;6.07;3.15;;;;;;;18.53;58.83;98141.41;5084359;28;20015;-64
2022/08/14 06:05:55;;;;;;;4.15;3.05;;;;;;;18.82;57.50;98149.16;5092043;28;20485;-65
2022/08/14 06:08:25;;;;;;;4.05;3.53;;;;;;;19.07;57.44;98150.25;5089484;28;20035;-68
2022/08/14 06:10:52;;;;;;;3.85;2.85;;;;;;;19.61;55.82;98138.66;5082433;28;20020;-64
2022/08/14 06:13:18;;;;;;;6.32;2.92;;;;;;;20.00;54.79;98135.28;5088052;28;20462;-70
2022/08/14 06:15:45;;;;;;;7.53;3.00;;;;;;;20.99;51.49;98143.50;5088279;28;20111;-67
2022/08/14 06:18:11;;;;;;;3.67;2.60;;;;;;;22.42;48.25;98132.88;5089472;28;20024;-67
2022/08/14 06:20:37;;;;;;;6.60;3.08;;;;;;;24.40;43.64;98127.69;5088525;28;20035;-67
2022/08/14 06:23:03;;;;;;;4.07;2.85;;;;;;;26.33;39.81;98124.94;5086187;28;20072;-67
2022/08/14 06:25:29;;;;;;;4.13;3.00;;;;;;;27.85;37.26;98126.66;5090153;28;20032;-68
2022/08/14 06:27:55;;;;;;;3.25;2.80;;;;;;;28.03;36.36;98121.81;5069262;28;20032;-66
2022/08/14 06:30:27;;;;;;;4.75;2.90;;;;;;;29.49;34.43;98118.22;5086530;28;20019;-66
2022/08/14 06:32:52;;;;;;;8.25;3.05;;;;;;;29.78;33.15;98115.63;5085076;28;20042;-65
2022/08/14 06:35:19;;;;;;;4.65;2.50;;;;;;;31.19;31.46;98111.22;5093842;28;20115;-67
2022/08/14 06:37:56;;;;;;;7.65;2.50;;;;;;;32.12;30.05;98113.66;5090148;28;20024;-67
2022/08/14 06:40:23;;;;;;;3.75;2.35;;;;;;;32.06;30.19;98092.72;5090608;28;20036;-67
2022/08/14 06:42:49;;;;;;;2.92;2.30;;;;;;;31.83;30.60;98095.34;5091124;28;20146;-67
2022/08/14 06:45:15;;;;;;;5.75;2.40;;;;;;;31.84;30.67;98067.00;5094027;28;20043;-68
2022/08/14 06:47:42;;;;;;;3.50;2.28;;;;;;;30.88;31.76;98072.81;5089067;28;20028;-69
2022/08/14 06:50:10;;;;;;;7.20;2.63;;;;;;;30.20;33.33;98077.13;5088013;28;20024;-69
2022/08/14 06:52:36;;;;;;;5.28;2.42;;;;;;;31.26;32.25;98079.84;5088425;28;20384;-69
2022/08/14 06:55:03;;;;;;;3.92;2.45;;;;;;;31.00;32.71;98070.00;5087653;28;20039;-69
2022/08/14 06:57:44;;;;;;;3.85;2.50;;;;;;;31.82;31.02;98065.75;5087196;28;20097;-70
2022/08/14 07:00:18;;;;;;;3.40;2.17;;;;;;;31.88;31.56;98053.91;5088207;28;20102;-70
2022/08/14 07:05:44;;;;;;;3.47;2.75;;;;;;;32.72;30.51;98052.66;5089968;28;20030;-70
2022/08/14 07:08:25;;;;;;;7.93;2.55;;;;;;;33.38;29.67;98061.16;5082361;28;20435;-70
2022/08/14 07:11:24;;;;;;;2.95;2.25;;;;;;;33.11;29.26;98063.03;5128573;27;20120;-65
2022/08/14 07:13:49;;;;;;;2.53;2.20;;;;;;;32.99;29.49;98054.75;5100227;28;20558;-65
2022/08/14 07:16:15;;;;;;;6.75;2.25;;;;;;;32.78;29.73;98055.97;5103954;28;20069;-65
2022/08/14 07:18:40;;;;;;;5.30;2.60;;;;;;;32.68;29.76;98045.34;5095791;28;20038;-65
2022/08/14 07:21:07;;;;;;;5.05;2.80;;;;;;;34.19;27.89;98040.44;5096587;28;20114;-65
2022/08/14 07:23:34;;;;;;;5.20;2.40;;;;;;;35.28;27.17;98042.22;5104469;28;20677;-65
2022/08/14 07:26:01;;;;;;;3.45;2.33;;;;;;;36.18;25.71;98043.00;5099934;28;20529;-65
2022/08/14 07:28:32;;;;;;;4.80;2.10;;;;;;;35.80;25.91;98053.59;5097712;28;20431;-66
2022/08/14 07:31:00;;;;;;;5.20;2.25;;;;;;;36.31;25.57;98052.75;5098709;28;20031;-66
2022/08/14 07:33:30;;;;;;;4.50;2.10;;;;;;;36.59;25.06;98056.97;5095698;28;20028;-65
2022/08/14 07:35:58;;;;;;;2.53;1.95;;;;;;;36.38;25.44;98058.44;5098988;28;20055;-65
2022/08/14 07:38:23;;;;;;;3.75;2.15;;;;;;;36.43;25.30;98055.22;5097860;28;20436;-65
2022/08/14 07:40:50;;;;;;;4.47;2.20;;;;;;;35.44;25.94;98052.44;5101861;28;20119;-66
2022/08/14 07:43:16;;;;;;;2.78;1.98;;;;;;;36.11;25.72;98062.69;5110392;27;20055;-66
2022/08/14 07:45:43;;;;;;;4.85;1.80;;;;;;;37.00;24.99;98049.06;5101129;28;20020;-65
2022/08/14 07:48:08;;;;;;;2.67;1.80;;;;;;;37.63;24.19;98049.63;5096792;28;20024;-66
2022/08/14 07:50:34;;;;;;;2.47;1.70;;;;;;;38.37;24.04;98059.25;5091150;28;20016;-66
2022/08/14 07:53:00;;;;;;;4.45;1.85;;;;;;;38.84;23.29;98061.94;5096737;28;20019;-66
2022/08/14 07:55:26;;;;;;;5.60;1.98;;;;;;;39.60;22.01;98057.50;5102961;28;20098;-66
2022/08/14 07:57:52;;;;;;;1.98;1.77;;;;;;;39.12;22.12;98054.56;5093251;28;20111;-66
2022/08/14 08:00:21;;;;;;;5.45;1.70;;;;;;;39.19;22.35;98054.53;5101700;28;20141;-66
2022/08/14 08:02:50;;;;;;;2.97;1.70;;;;;;;40.25;21.34;98054.97;5100049;28;20467;-66
2022/08/14 08:05:15;;;;;;;1.77;1.58;;;;;;;39.20;21.68;98053.31;5102280;28;20087;-66
2022/08/14 08:07:43;;;;;;;2.55;1.58;;;;;;;39.27;22.25;98055.28;5095086;28;20023;-67
2022/08/14 08:10:33;;;;;;;3.72;1.70;;;;;;;39.08;22.33;98046.09;5093349;28;20023;-67
2022/08/14 08:13:06;;;;;;;3.45;1.40;;;;;;;37.99;22.98;98062.94;5089957;28;20020;-66
2022/08/14 08:15:37;;;;;;;4.55;1.33;;;;;;;39.58;21.81;98062.78;5098015;28;20028;-66
2022/08/14 08:18:05;;;;;;;1.80;1.45;;;;;;;39.33;22.19;98057.31;5094151;28;20024;-66
2022/08/14 08:20:36;;;;;;;2.53;1.40;;;;;;;38.99;22.43;98060.69;5096071;28;20089;-67
2022/08/14 08:23:04;;;;;;;3.88;1.67;;;;;;;40.01;21.51;98067.28;5080144;28;20035;-66
2022/08/14 08:25:38;;;;;;;2.17;1.40;;;;;;;39.64;21.65;98058.28;5080368;28;20024;-67
2022/08/14 08:28:15;;;;;;;3.08;1.60;;;;;;;38.74;22.14;98052.28;5078268;28;20040;-66
2022/08/14 08:30:47;;;;;;;2.17;1.67;;;;;;;37.91;23.17;98053.66;5076821;28;20035;-66
2022/08/14 08:33:15;;;;;;;4.35;1.50;;;;;;;38.13;23.10;98043.97;5099847;28;20035;-66
2022/08/14 08:35:41;;;;;;;4.05;1.48;;;;;;;39.12;22.10;98044.06;5084965;28;20042;-66
2022/08/14 08:38:09;;;;;;;2.17;1.50;;;;;;;39.41;22.00;98041.09;5079431;28;20036;-67
2022/08/14 08:40:45;;;;;;;1.88;1.58;;;;;;;39.79;21.49;98036.34;5082601;28;20023;-67
2022/08/14 08:43:30;;;;;;;1.95;1.40;;;;;;;39.76;21.24;98042.81;5080360;28;20040;-67
2022/08/14 08:46:01;;;;;;;1.63;1.38;;;;;;;37.50;23.39;98034.31;5084701;28;20032;-67
2022/08/14 08:48:29;;;;;;;1.90;1.35;;;;;;;39.57;21.81;98032.06;5081693;28;20042;-66
2022/08/14 08:51:00;;;;;;;2.78;1.42;;;;;;;40.22;20.51;98035.97;5082927;28;20032;-67
2022/08/14 08:53:31;;;;;;;4.38;1.30;;;;;;;40.58;20.37;98031.91;5081577;28;20459;-66
2022/08/14 08:55:57;;;;;;;2.58;1.20;;;;;;;40.66;20.24;98028.56;5082156;28;20371;-67
2022/08/14 08:58:22;;;;;;;1.58;1.20;;;;;;;41.52;19.90;98023.78;5084185;28;20032;-66
2022/08/14 09:00:50;;;;;;;3.05;1.50;;;;;;;42.01;19.18;98016.44;5072820;28;20032;-66
2022/08/14 09:03:19;;;;;;;2.08;1.20;;;;;;;40.73;19.78;98005.00;5083063;28;20035;-67
2022/08/14 09:05:55;;;;;;;1.40;1.30;;;;;;;42.78;18.28;97997.50;5075258;28;20027;-64
2022/08/14 09:08:27;;;;;;;2.05;1.45;;;;;;;42.11;18.12;97993.97;5082113;28;20050;-66
2022/08/14 09:10:54;;;;;;;1.80;1.30;;;;;;;41.64;18.85;97991.94;5072995;28;20816;-66
2022/08/14 09:13:24;;;;;;;1.60;1.10;;;;;;;42.76;19.35;97988.63;5087291;28;20146;-66
2022/08/14 09:15:50;;;;;;;4.00;1.08;;;;;;;42.80;18.92;97986.47;5086244;28;20038;-67
2022/08/14 09:18:18;;;;;;;5.28;1.25;;;;;;;42.35;18.84;97984.16;5069505;28;20118;-67
2022/08/14 09:23:37;;;;;;;4.70;1.30;;;;;;;42.52;18.89;97981.38;5125747;27;20766;-65
2022/08/14 09:26:02;;;;;;;1.40;1.15;;;;;;;42.76;18.40;97973.56;5121622;27;20035;-65
2022/08/14 09:28:28;;;;;;;1.35;1.02;;;;;;;44.28;17.15;97972.25;5125348;27;20135;-65
2022/08/14 09:30:55;;;;;;;1.48;1.35;;;;;;;42.69;18.09;97968.81;5120117;27;20038;-64
2022/08/14 09:33:51;;;;;;;1.25;1.15;;;;;;;42.05;18.17;97970.91;5126052;27;20027;-64
2022/08/14 09:36:44;;;;;;;3.85;1.17;;;;;;;42.46;18.60;97966.88;5121258;27;20080;-65
2022/08/14 09:39:56;;;;;;;1.77;1.20;;;;;;;43.13;17.45;97960.94;5121354;27;20027;-65
2022/08/14 09:42:35;;;;;;;2.15;1.40;;;;;;;42.61;18.03;97956.00;5117453;28;20023;-65
2022/08/14 09:45:12;;;;;;;3.60;1.25;;;;;;;42.39;18.44;97953.59;5148339;27;20475;-65
2022/08/14 09:47:41;;;;;;;1.98;1.25;;;;;;;43.84;17.43;97957.56;5118774;27;20024;-66
2022/08/14 09:50:28;;;;;;;1.20;1.10;;;;;;;42.82;17.73;97960.44;5112183;27;20743;-66
2022/08/14 09:53:04;;;;;;;3.42;1.27;;;;;;;41.85;17.73;97965.19;5139122;27;20030;-66
2022/08/14 09:55:34;;;;;;;1.48;1.10;;;;;;;42.13;17.45;97960.19;5121289;27;20031;-66
2022/08/14 09:58:18;;;;;;;2.55;1.33;;;;;;;41.89;17.84;97956.56;5117248;27;20055;-66
2022/08/14 10:00:58;;;;;;;1.48;1.30;;;;;;;41.08;18.69;97969.66;5119092;27;20114;-65
2022/08/14 10:03:32;;;;;;;2.92;1.52;;;;;;;41.56;18.29;97962.06;5139590;27;20153;-65
2022/08/14 10:06:05;;;;;;;2.15;1.50;;;;;;;40.03;19.01;97954.34;5117475;27;20064;-64
2022/08/14 10:08:43;;;;;;;2.85;1.70;;;;;;;39.01;19.73;97949.94;5123350;27;20055;-64
2022/08/14 10:11:16;;;;;;;4.63;1.45;;;;;;;38.75;20.05;97951.28;5123421;27;20118;-64
2022/08/14 10:13:42;;;;;;;2.67;1.73;;;;;;;38.23;20.76;97953.94;5126333;27;20410;-63
2022/08/14 10:16:09;;;;;;;2.58;1.65;;;;;;;39.32;19.76;97950.13;5112556;27;20113;-64
2022/08/14 10:18:35;;;;;;;2.30;1.70;;;;;;;40.27;19.18;97958.97;5119175;27;20516;-63
2022/08/14 10:21:03;;;;;;;4.05;1.80;;;;;;;39.08;20.04;97952.75;5115951;27;20384;-63
2022/08/14 10:23:46;;;;;;;1.75;1.60;;;;;;;38.77;19.94;97934.72;5124907;27;20034;-64
2022/08/14 10:26:16;;;;;;;6.53;1.88;;;;;;;39.43;19.65;97929.06;5120605;27;20065;-64
2022/08/14 10:28:46;;;;;;;2.25;1.80;;;;;;;39.46;19.82;97938.72;5118528;27;20391;-64
2022/08/14 10:31:32;;;;;;;2.20;1.85;;;;;;;39.66;19.79;97919.91;5120655;28;20035;-65
2022/08/14 10:34:01;;;;;;;1.55;1.45;;;;;;;41.36;18.38;97908.00;5109184;27;20529;-65
2022/08/14 10:36:48;;;;;;;1.92;1.75;;;;;;;40.46;19.19;97902.88;5100590;28;20419;-65
2022/08/14 10:39:20;;;;;;;2.78;1.70;;;;;;;40.64;18.97;97897.75;5102152;28;20046;-65
2022/08/14 10:41:47;;;;;;;2.33;1.70;;;;;;;41.82;17.87;97889.34;5105538;28;20040;-65
2022/08/14 10:44:20;;;;;;;1.90;1.65;;;;;;;39.78;19.12;97893.13;5098187;27;20032;-63
2022/08/14 10:46:57;;;;;;;1.55;1.45;;;;;;;39.48;19.75;97885.31;5102560;27;20031;-64
2022/08/14 10:49:25;;;;;;;3.00;1.75;;;;;;;39.41;19.81;97869.22;5123532;27;20508;-67
2022/08/14 10:51:54;;;;;;;2.53;1.80;;;;;;;40.68;18.95;97858.00;5104667;28;20494;-64
2022/08/14 10:54:29;;;;;;;;;;;;;;;40.42;19.40;97846.19;5099278;27;20031;-65
2022/08/14 10:56:54;;;;;;;1.80;1.70;;;;;;;39.58;19.43;97847.59;5102458;27;19912;-63
2022/08/14 10:59:21;;;;;;;5.15;1.80;;;;;;;38.95;20.12;97853.44;5102371;27;20386;-64
2022/08/14 11:01:46;;;;;;;2.88;1.73;;;;;;;39.28;20.29;97853.16;5111331;27;20103;-65
2022/08/14 11:04:24;;;;;;;2.05;1.60;;;;;;;40.07;19.41;97853.13;5106210;27;20169;-65
2022/08/14 11:06:54;;;;;;;3.75;1.70;;;;;;;41.24;17.98;97843.31;5112095;27;20794;-64
2022/08/14 11:09:20;;;;;;;3.38;1.63;;;;;;;41.19;18.43;97841.81;5105419;27;20927;-65
2022/08/14 11:11:48;;;;;;;2.05;1.30;;;;;;;41.36;17.85;97823.63;5105018;27;20036;-65
2022/08/14 11:14:15;;;;;;;1.80;1.42;;;;;;;40.98;18.03;97834.44;5108470;27;20122;-62
2022/08/14 11:16:43;;;;;;;2.05;1.67;;;;;;;39.94;18.90;97832.25;5106429;27;20070;-66
2022/08/14 11:19:10;;;;;;;;;;;;;;;40.55;18.55;97832.25;5111546;27;20709;-65
2022/08/14 11:21:38;;;;;;;1.63;1.48;;;;;;;40.31;18.68;97840.69;5103536;28;19920;-64
2022/08/14 11:24:05;;;;;;;;;;;;;;;39.81;19.01;97829.97;5103307;27;20108;-64
2022/08/14 11:26:30;;;;;;;2.05;1.85;;;;;;;40.88;18.45;97827.69;5107273;28;19919;-64
2022/08/14 11:28:59;;;;;;;3.72;1.80;;;;;;;40.57;18.75;97826.16;5102649;28;20100;-64
2022/08/14 11:31:24;;;;;;;;;;;;;;;40.99;18.71;97819.00;5109527;27;20119;-65
2022/08/14 11:33:56;;;;;;;2.00;1.80;;;;;;;41.39;18.30;97821.97;5098444;28;20005;-65
2022/08/14 11:36:27;;;;;;;3.58;1.77;;;;;;;42.38;17.08;97829.72;5105156;28;20031;-64
2022/08/14 11:38:52;;;;;;;1.77;1.60;;;;;;;41.30;17.70;97831.06;5095745;27;20027;-64
2022/08/14 11:41:18;;;;;;;7.35;1.90;;;;;;;41.18;18.21;97823.94;5106810;28;20020;-65
2022/08/14 11:43:47;;;;;;;2.60;1.90;;;;;;;41.35;18.08;97826.91;5113676;27;20483;-65
2022/08/14 11:46:14;;;;;;;1.88;1.45;;;;;;;40.88;18.36;97829.75;5099283;28;20046;-63
2022/08/14 11:48:51;;;;;;;2.00;1.80;;;;;;;39.28;19.23;97831.31;5102266;27;20080;-65
2022/08/14 11:51:22;;;;;;;2.58;1.65;;;;;;;39.28;19.45;97827.69;5094330;27;20037;-65
2022/08/14 11:54:06;;;;;;;3.63;1.80;;;;;;;40.84;18.33;97815.59;5104950;28;20502;-67
2022/08/14 11:56:38;;;;;;;2.38;1.90;;;;;;;40.56;18.52;97825.34;5105317;28;20027;-67
2022/08/14 11:59:06;;;;;;;5.80;1.92;;;;;;;39.56;19.34;97826.59;5107676;27;20030;-67
2022/08/14 12:01:31;;;;;;;2.28;1.80;;;;;;;39.86;19.19;97826.69;5106967;28;20028;-68
2022/08/14 12:04:18;;;;;;;2.67;2.05;;;;;;;39.97;18.90;97820.09;5110912;27;20043;-66
2022/08/14 12:07:06;;;;;;;2.30;1.67;;;;;;;40.36;18.51;97808.22;5108508;28;20027;-66